sensor_id;sensor_type;location;lat;lon;timestamp;temperature;humidity
5972;DHT22;3012;49.944;8.454;2023-08-06T00:02:24;17.20;99.90
5972;DHT22;3012;49.944;8.454;2023-08-06T00:04:54;17.30;99.90
5972;DHT22;3012;49.944;8.454;2023-08-06T00:07:24;17.20;99.90
5972;DHT22;3012;49.944;8.454;2023-08-06T00:09:55;16.70;99.90
5972;DHT22;3012;49.944;8.454;2023-08-06T00:12:27;17.40;99.90
5972;DHT22;3012;49.944;8.454;2023-08-06T00:14:58;17.30;99.90
5972;DHT22;3012;49.944;8.454;2023-08-06T00:17:28;17.20;99.90
5972;DHT22;3012;49.944;8.454;2023-08-06T00:19:59;17.20;99.90
5972;DHT22;3012;49.944;8.454;2023-08-06T00:22:34;17.30;99.90
5972;DHT22;3012;49.944;8.454;2023-08-06T00:25:06;17.20;99.90
5972;DHT22;3012;49.944;8.454;2023-08-06T00:27:37;17.10;99.90
5972;DHT22;3012;49.944;8.454;2023-08-06T00:30:08;17.20;99.90
5972;DHT22;3012;49.944;8.454;2023-08-06T00:32:38;17.30;99.90
5972;DHT22;3012;49.944;8.454;2023-08-06T00:35:08;17.30;99.90
5972;DHT22;3012;49.944;8.454;2023-08-06T00:37:38;17.40;99.90
5972;DHT22;3012;49.944;8.454;2023-08-06T00:40:09;17.40;99.90
5972;DHT22;3012;49.944;8.454;2023-08-06T00:42:41;17.00;99.90
5972;DHT22;3012;49.944;8.454;2023-08-06T00:45:12;16.90;99.90
5972;DHT22;3012;49.944;8.454;2023-08-06T00:47:43;17.00;99.90
5972;DHT22;3012;49.944;8.454;2023-08-06T00:50:13;17.20;99.90
5972;DHT22;3012;49.944;8.454;2023-08-06T00:52:44;17.00;99.90
5972;DHT22;3012;49.944;8.454;2023-08-06T00:55:15;17.10;99.90
5972;DHT22;3012;49.944;8.454;2023-08-06T00:57:47;17.00;99.90
5972;DHT22;3012;49.944;8.454;2023-08-06T01:00:20;17.20;99.90
5972;DHT22;3012;49.944;8.454;2023-08-06T01:02:50;16.70;99.90
5972;DHT22;3012;49.944;8.454;2023-08-06T01:05:21;17.10;99.90
5972;DHT22;3012;49.944;8.454;2023-08-06T01:08:04;17.20;99.90
5972;DHT22;3012;49.944;8.454;2023-08-06T01:10:44;16.70;99.90
5972;DHT22;3012;49.944;8.454;2023-08-06T01:13:30;17.00;99.90
5972;DHT22;3012;49.944;8.454;2023-08-06T01:16:02;17.00;99.90
5972;DHT22;3012;49.944;8.454;2023-08-06T01:18:34;16.80;99.90
5972;DHT22;3012;49.944;8.454;2023-08-06T01:21:07;17.20;99.90
5972;DHT22;3012;49.944;8.454;2023-08-06T01:23:37;16.70;99.90
5972;DHT22;3012;49.944;8.454;2023-08-06T01:26:12;17.00;99.90
5972;DHT22;3012;49.944;8.454;2023-08-06T01:28:51;16.80;99.90
5972;DHT22;3012;49.944;8.454;2023-08-06T01:31:24;17.00;99.90
5972;DHT22;3012;49.944;8.454;2023-08-06T01:33:57;17.00;99.90
5972;DHT22;3012;49.944;8.454;2023-08-06T01:36:31;16.40;99.90
5972;DHT22;3012;49.944;8.454;2023-08-06T01:39:01;16.90;99.90
5972;DHT22;3012;49.944;8.454;2023-08-06T01:41:31;17.30;99.90
5972;DHT22;3012;49.944;8.454;2023-08-06T01:44:02;17.30;99.90
5972;DHT22;3012;49.944;8.454;2023-08-06T01:46:32;16.70;99.90
5972;DHT22;3012;49.944;8.454;2023-08-06T01:49:02;16.70;99.90
5972;DHT22;3012;49.944;8.454;2023-08-06T01:51:33;16.90;99.90
5972;DHT22;3012;49.944;8.454;2023-08-06T01:54:03;17.00;99.90
5972;DHT22;3012;49.944;8.454;2023-08-06T01:56:34;17.00;99.90
5972;DHT22;3012;49.944;8.454;2023-08-06T01:59:05;17.30;99.90
5972;DHT22;3012;49.944;8.454;2023-08-06T02:01:35;16.60;99.90
5972;DHT22;3012;49.944;8.454;2023-08-06T02:04:05;16.90;99.90
5972;DHT22;3012;49.944;8.454;2023-08-06T02:06:36;16.70;99.90
5972;DHT22;3012;49.944;8.454;2023-08-06T02:09:07;17.00;99.90
5972;DHT22;3012;49.944;8.454;2023-08-06T02:11:37;17.00;99.90
5972;DHT22;3012;49.944;8.454;2023-08-06T02:14:07;17.00;99.90
5972;DHT22;3012;49.944;8.454;2023-08-06T02:16:37;17.10;99.90
5972;DHT22;3012;49.944;8.454;2023-08-06T02:19:07;16.50;99.90
5972;DHT22;3012;49.944;8.454;2023-08-06T02:21:39;17.00;99.90
5972;DHT22;3012;49.944;8.454;2023-08-06T02:24:09;17.00;99.90
5972;DHT22;3012;49.944;8.454;2023-08-06T02:26:39;16.90;99.90
5972;DHT22;3012;49.944;8.454;2023-08-06T02:29:09;16.50;99.90
5972;DHT22;3012;49.944;8.454;2023-08-06T02:31:39;16.90;99.90
5972;DHT22;3012;49.944;8.454;2023-08-06T02:34:09;17.20;99.90
5972;DHT22;3012;49.944;8.454;2023-08-06T02:36:41;16.90;99.90
5972;DHT22;3012;49.944;8.454;2023-08-06T02:39:11;16.70;99.90
5972;DHT22;3012;49.944;8.454;2023-08-06T02:41:42;17.30;99.90
5972;DHT22;3012;49.944;8.454;2023-08-06T02:44:12;16.80;99.90
5972;DHT22;3012;49.944;8.454;2023-08-06T02:46:44;16.50;99.90
5972;DHT22;3012;49.944;8.454;2023-08-06T02:49:14;17.30;99.90
5972;DHT22;3012;49.944;8.454;2023-08-06T02:51:46;16.70;99.90
5972;DHT22;3012;49.944;8.454;2023-08-06T02:54:17;17.30;99.90
5972;DHT22;3012;49.944;8.454;2023-08-06T02:56:47;16.90;99.90
5972;DHT22;3012;49.944;8.454;2023-08-06T02:59:18;16.90;99.90
5972;DHT22;3012;49.944;8.454;2023-08-06T03:01:48;17.10;99.90
5972;DHT22;3012;49.944;8.454;2023-08-06T03:04:18;16.70;99.90
5972;DHT22;3012;49.944;8.454;2023-08-06T03:06:51;16.50;99.90
5972;DHT22;3012;49.944;8.454;2023-08-06T03:09:21;16.80;99.90
5972;DHT22;3012;49.944;8.454;2023-08-06T03:11:51;16.80;99.90
5972;DHT22;3012;49.944;8.454;2023-08-06T03:14:21;16.70;99.90
5972;DHT22;3012;49.944;8.454;2023-08-06T03:16:51;16.90;99.90
5972;DHT22;3012;49.944;8.454;2023-08-06T03:19:21;16.80;99.90
5972;DHT22;3012;49.944;8.454;2023-08-06T03:21:53;16.80;99.90
5972;DHT22;3012;49.944;8.454;2023-08-06T03:24:23;16.90;99.90
5972;DHT22;3012;49.944;8.454;2023-08-06T03:26:53;17.10;99.90
5972;DHT22;3012;49.944;8.454;2023-08-06T03:29:23;16.90;99.90
5972;DHT22;3012;49.944;8.454;2023-08-06T03:31:54;17.10;99.90
5972;DHT22;3012;49.944;8.454;2023-08-06T03:34:23;16.60;99.90
5972;DHT22;3012;49.944;8.454;2023-08-06T03:36:55;16.80;99.90
5972;DHT22;3012;49.944;8.454;2023-08-06T03:39:25;16.50;99.90
5972;DHT22;3012;49.944;8.454;2023-08-06T03:41:55;16.70;99.90
5972;DHT22;3012;49.944;8.454;2023-08-06T03:44:25;16.90;99.90
5972;DHT22;3012;49.944;8.454;2023-08-06T03:46:56;16.60;99.90
5972;DHT22;3012;49.944;8.454;2023-08-06T03:49:26;16.90;99.90
5972;DHT22;3012;49.944;8.454;2023-08-06T03:51:58;17.20;99.90
5972;DHT22;3012;49.944;8.454;2023-08-06T03:54:28;16.70;99.90
5972;DHT22;3012;49.944;8.454;2023-08-06T03:56:59;16.80;99.90
5972;DHT22;3012;49.944;8.454;2023-08-06T03:59:29;16.70;99.90
5972;DHT22;3012;49.944;8.454;2023-08-06T04:01:59;16.40;99.90
5972;DHT22;3012;49.944;8.454;2023-08-06T04:04:29;16.70;99.90
5972;DHT22;3012;49.944;8.454;2023-08-06T04:07:00;16.10;99.90
5972;DHT22;3012;49.944;8.454;2023-08-06T04:09:31;16.90;99.90
5972;DHT22;3012;49.944;8.454;2023-08-06T04:12:01;16.90;99.90
5972;DHT22;3012;49.944;8.454;2023-08-06T04:14:32;16.60;99.90
5972;DHT22;3012;49.944;8.454;2023-08-06T04:17:02;16.70;99.90
5972;DHT22;3012;49.944;8.454;2023-08-06T04:19:32;16.30;99.90
5972;DHT22;3012;49.944;8.454;2023-08-06T04:22:04;16.80;99.90
5972;DHT22;3012;49.944;8.454;2023-08-06T04:24:34;16.30;99.90
5972;DHT22;3012;49.944;8.454;2023-08-06T04:27:05;16.40;99.90
5972;DHT22;3012;49.944;8.454;2023-08-06T04:29:35;16.50;99.90
5972;DHT22;3012;49.944;8.454;2023-08-06T04:32:07;16.50;99.90
5972;DHT22;3012;49.944;8.454;2023-08-06T04:34:38;16.40;99.90
5972;DHT22;3012;49.944;8.454;2023-08-06T04:37:10;16.30;99.90
5972;DHT22;3012;49.944;8.454;2023-08-06T04:39:40;16.20;99.90
5972;DHT22;3012;49.944;8.454;2023-08-06T04:42:11;16.40;99.90
5972;DHT22;3012;49.944;8.454;2023-08-06T04:44:42;16.40;99.90
5972;DHT22;3012;49.944;8.454;2023-08-06T04:47:12;15.90;99.90
5972;DHT22;3012;49.944;8.454;2023-08-06T04:49:46;16.10;99.90
5972;DHT22;3012;49.944;8.454;2023-08-06T04:52:19;15.80;99.90
5972;DHT22;3012;49.944;8.454;2023-08-06T04:54:56;16.30;99.90
5972;DHT22;3012;49.944;8.454;2023-08-06T04:57:28;16.30;99.90
5972;DHT22;3012;49.944;8.454;2023-08-06T04:59:59;16.00;99.90
5972;DHT22;3012;49.944;8.454;2023-08-06T05:02:29;16.10;99.90
5972;DHT22;3012;49.944;8.454;2023-08-06T05:05:01;16.00;99.90
5972;DHT22;3012;49.944;8.454;2023-08-06T05:07:33;15.60;99.90
5972;DHT22;3012;49.944;8.454;2023-08-06T05:10:03;15.90;99.90
5972;DHT22;3012;49.944;8.454;2023-08-06T05:12:34;16.20;99.90
5972;DHT22;3012;49.944;8.454;2023-08-06T05:15:06;16.20;99.90
5972;DHT22;3012;49.944;8.454;2023-08-06T05:17:37;16.20;99.90
5972;DHT22;3012;49.944;8.454;2023-08-06T05:20:10;16.10;99.90
5972;DHT22;3012;49.944;8.454;2023-08-06T05:22:43;16.20;99.90
5972;DHT22;3012;49.944;8.454;2023-08-06T05:25:14;16.20;99.90
5972;DHT22;3012;49.944;8.454;2023-08-06T05:27:45;16.50;99.90
5972;DHT22;3012;49.944;8.454;2023-08-06T05:30:15;16.40;99.90
5972;DHT22;3012;49.944;8.454;2023-08-06T05:32:47;15.90;99.90
5972;DHT22;3012;49.944;8.454;2023-08-06T05:35:17;16.40;99.90
5972;DHT22;3012;49.944;8.454;2023-08-06T05:37:51;16.20;99.90
5972;DHT22;3012;49.944;8.454;2023-08-06T05:40:21;16.50;99.90
5972;DHT22;3012;49.944;8.454;2023-08-06T05:42:54;16.00;99.90
5972;DHT22;3012;49.944;8.454;2023-08-06T05:45:24;16.40;99.90
5972;DHT22;3012;49.944;8.454;2023-08-06T05:47:55;16.00;99.90
5972;DHT22;3012;49.944;8.454;2023-08-06T05:50:26;15.90;99.90
5972;DHT22;3012;49.944;8.454;2023-08-06T05:52:58;15.90;99.90
5972;DHT22;3012;49.944;8.454;2023-08-06T05:55:28;16.30;99.90
5972;DHT22;3012;49.944;8.454;2023-08-06T05:57:59;15.90;99.90
5972;DHT22;3012;49.944;8.454;2023-08-06T06:00:29;16.50;99.90
5972;DHT22;3012;49.944;8.454;2023-08-06T06:03:00;16.20;99.90
5972;DHT22;3012;49.944;8.454;2023-08-06T06:05:30;16.40;99.90
5972;DHT22;3012;49.944;8.454;2023-08-06T06:08:03;16.40;99.90
5972;DHT22;3012;49.944;8.454;2023-08-06T06:10:35;16.10;99.90
5972;DHT22;3012;49.944;8.454;2023-08-06T06:13:06;16.30;99.90
5972;DHT22;3012;49.944;8.454;2023-08-06T06:15:37;16.60;99.90
5972;DHT22;3012;49.944;8.454;2023-08-06T06:18:09;16.40;99.90
5972;DHT22;3012;49.944;8.454;2023-08-06T06:20:41;16.20;99.90
5972;DHT22;3012;49.944;8.454;2023-08-06T06:23:15;16.30;99.90
5972;DHT22;3012;49.944;8.454;2023-08-06T06:25:49;16.20;99.90
5972;DHT22;3012;49.944;8.454;2023-08-06T06:28:20;16.40;99.90
5972;DHT22;3012;49.944;8.454;2023-08-06T06:30:52;16.20;99.90
5972;DHT22;3012;49.944;8.454;2023-08-06T06:33:22;16.30;99.90
5972;DHT22;3012;49.944;8.454;2023-08-06T06:35:52;15.80;99.90
5972;DHT22;3012;49.944;8.454;2023-08-06T06:38:24;16.30;99.90
5972;DHT22;3012;49.944;8.454;2023-08-06T06:40:55;16.40;99.90
5972;DHT22;3012;49.944;8.454;2023-08-06T06:43:26;16.50;99.90
5972;DHT22;3012;49.944;8.454;2023-08-06T06:45:57;16.60;99.90
5972;DHT22;3012;49.944;8.454;2023-08-06T06:48:31;16.40;99.90
5972;DHT22;3012;49.944;8.454;2023-08-06T06:51:02;16.50;99.90
5972;DHT22;3012;49.944;8.454;2023-08-06T06:53:35;16.10;99.90
5972;DHT22;3012;49.944;8.454;2023-08-06T06:56:07;16.50;99.90
5972;DHT22;3012;49.944;8.454;2023-08-06T06:58:38;16.20;99.90
5972;DHT22;3012;49.944;8.454;2023-08-06T07:01:10;16.20;99.90
5972;DHT22;3012;49.944;8.454;2023-08-06T07:03:40;16.10;99.90
5972;DHT22;3012;49.944;8.454;2023-08-06T07:06:11;16.30;99.90
5972;DHT22;3012;49.944;8.454;2023-08-06T07:08:45;16.00;99.90
5972;DHT22;3012;49.944;8.454;2023-08-06T07:11:15;15.70;99.90
5972;DHT22;3012;49.944;8.454;2023-08-06T07:13:45;15.70;99.90
5972;DHT22;3012;49.944;8.454;2023-08-06T07:16:16;15.30;99.90
5972;DHT22;3012;49.944;8.454;2023-08-06T07:18:46;16.30;99.90
5972;DHT22;3012;49.944;8.454;2023-08-06T07:21:16;15.80;99.90
5972;DHT22;3012;49.944;8.454;2023-08-06T07:23:48;15.90;99.90
5972;DHT22;3012;49.944;8.454;2023-08-06T07:26:18;15.80;99.90
5972;DHT22;3012;49.944;8.454;2023-08-06T07:28:48;16.10;99.90
5972;DHT22;3012;49.944;8.454;2023-08-06T07:31:18;16.00;99.90
5972;DHT22;3012;49.944;8.454;2023-08-06T07:33:49;16.30;99.90
5972;DHT22;3012;49.944;8.454;2023-08-06T07:36:20;15.90;99.90
5972;DHT22;3012;49.944;8.454;2023-08-06T07:38:52;16.00;99.90
5972;DHT22;3012;49.944;8.454;2023-08-06T07:41:24;15.90;99.90
5972;DHT22;3012;49.944;8.454;2023-08-06T07:43:54;15.70;99.90
5972;DHT22;3012;49.944;8.454;2023-08-06T07:46:25;16.10;99.90
5972;DHT22;3012;49.944;8.454;2023-08-06T07:48:56;15.80;99.90
5972;DHT22;3012;49.944;8.454;2023-08-06T07:51:28;16.20;99.90
5972;DHT22;3012;49.944;8.454;2023-08-06T07:54:01;16.30;99.90
5972;DHT22;3012;49.944;8.454;2023-08-06T07:56:32;15.60;99.90
5972;DHT22;3012;49.944;8.454;2023-08-06T07:59:05;16.40;99.90
5972;DHT22;3012;49.944;8.454;2023-08-06T08:01:36;16.40;99.90
5972;DHT22;3012;49.944;8.454;2023-08-06T08:04:08;16.00;99.90
5972;DHT22;3012;49.944;8.454;2023-08-06T08:06:40;16.30;99.90
5972;DHT22;3012;49.944;8.454;2023-08-06T08:09:14;16.90;99.90
5972;DHT22;3012;49.944;8.454;2023-08-06T08:11:45;16.80;99.90
5972;DHT22;3012;49.944;8.454;2023-08-06T08:14:16;16.90;99.90
5972;DHT22;3012;49.944;8.454;2023-08-06T08:16:49;17.20;99.90
5972;DHT22;3012;49.944;8.454;2023-08-06T08:19:20;17.20;99.90
5972;DHT22;3012;49.944;8.454;2023-08-06T08:21:51;17.30;99.90
5972;DHT22;3012;49.944;8.454;2023-08-06T08:24:25;16.80;99.90
5972;DHT22;3012;49.944;8.454;2023-08-06T08:26:55;16.60;99.90
5972;DHT22;3012;49.944;8.454;2023-08-06T08:29:26;17.40;99.90
5972;DHT22;3012;49.944;8.454;2023-08-06T08:31:58;17.60;99.90
5972;DHT22;3012;49.944;8.454;2023-08-06T08:34:29;17.60;99.90
5972;DHT22;3012;49.944;8.454;2023-08-06T08:37:00;18.30;99.90
5972;DHT22;3012;49.944;8.454;2023-08-06T08:39:33;18.50;99.90
5972;DHT22;3012;49.944;8.454;2023-08-06T08:42:04;18.80;99.90
5972;DHT22;3012;49.944;8.454;2023-08-06T08:44:35;18.90;99.90
5972;DHT22;3012;49.944;8.454;2023-08-06T08:47:07;18.80;99.90
5972;DHT22;3012;49.944;8.454;2023-08-06T08:49:38;18.70;99.90
5972;DHT22;3012;49.944;8.454;2023-08-06T08:52:10;18.70;99.90
5972;DHT22;3012;49.944;8.454;2023-08-06T08:54:44;18.40;99.90
5972;DHT22;3012;49.944;8.454;2023-08-06T08:57:14;18.40;99.90
5972;DHT22;3012;49.944;8.454;2023-08-06T08:59:44;18.10;99.90
5972;DHT22;3012;49.944;8.454;2023-08-06T09:02:15;18.50;99.90
5972;DHT22;3012;49.944;8.454;2023-08-06T09:04:47;18.60;99.90
5972;DHT22;3012;49.944;8.454;2023-08-06T09:07:18;18.90;99.90
5972;DHT22;3012;49.944;8.454;2023-08-06T09:09:52;18.70;99.90
5972;DHT22;3012;49.944;8.454;2023-08-06T09:12:22;18.50;99.90
5972;DHT22;3012;49.944;8.454;2023-08-06T09:14:52;18.20;99.90
5972;DHT22;3012;49.944;8.454;2023-08-06T09:17:22;18.00;99.90
5972;DHT22;3012;49.944;8.454;2023-08-06T09:19:52;18.00;99.90
5972;DHT22;3012;49.944;8.454;2023-08-06T09:22:23;17.90;99.90
5972;DHT22;3012;49.944;8.454;2023-08-06T09:24:56;17.50;99.90
5972;DHT22;3012;49.944;8.454;2023-08-06T09:27:27;18.00;99.90
5972;DHT22;3012;49.944;8.454;2023-08-06T09:29:57;18.20;99.90
5972;DHT22;3012;49.944;8.454;2023-08-06T09:32:27;17.40;99.90
5972;DHT22;3012;49.944;8.454;2023-08-06T09:35:01;17.80;99.90
5972;DHT22;3012;49.944;8.454;2023-08-06T09:37:36;17.20;99.90
5972;DHT22;3012;49.944;8.454;2023-08-06T09:40:25;17.40;99.90
5972;DHT22;3012;49.944;8.454;2023-08-06T09:42:56;17.40;99.90
5972;DHT22;3012;49.944;8.454;2023-08-06T09:45:31;17.00;99.90
5972;DHT22;3012;49.944;8.454;2023-08-06T09:48:04;17.50;99.90
5972;DHT22;3012;49.944;8.454;2023-08-06T09:50:36;17.40;99.90
5972;DHT22;3012;49.944;8.454;2023-08-06T09:53:08;17.60;99.90
5972;DHT22;3012;49.944;8.454;2023-08-06T09:55:41;17.80;99.90
5972;DHT22;3012;49.944;8.454;2023-08-06T09:58:11;17.90;99.90
5972;DHT22;3012;49.944;8.454;2023-08-06T10:00:42;18.10;99.90
5972;DHT22;3012;49.944;8.454;2023-08-06T10:03:13;18.10;99.90
5972;DHT22;3012;49.944;8.454;2023-08-06T10:05:46;18.20;99.90
5972;DHT22;3012;49.944;8.454;2023-08-06T10:08:16;18.20;99.90
5972;DHT22;3012;49.944;8.454;2023-08-06T10:10:48;18.10;99.90
5972;DHT22;3012;49.944;8.454;2023-08-06T10:13:22;17.90;99.90
5972;DHT22;3012;49.944;8.454;2023-08-06T10:15:53;17.90;99.90
5972;DHT22;3012;49.944;8.454;2023-08-06T10:18:23;18.00;99.90
5972;DHT22;3012;49.944;8.454;2023-08-06T10:20:54;18.30;99.90
5972;DHT22;3012;49.944;8.454;2023-08-06T10:23:33;18.50;99.90
5972;DHT22;3012;49.944;8.454;2023-08-06T10:26:08;18.90;99.90
5972;DHT22;3012;49.944;8.454;2023-08-06T10:28:38;19.00;99.90
5972;DHT22;3012;49.944;8.454;2023-08-06T10:31:10;19.00;99.90
5972;DHT22;3012;49.944;8.454;2023-08-06T10:33:42;19.00;99.90
5972;DHT22;3012;49.944;8.454;2023-08-06T10:36:14;19.20;99.90
5972;DHT22;3012;49.944;8.454;2023-08-06T10:38:47;19.40;99.90
5972;DHT22;3012;49.944;8.454;2023-08-06T10:41:23;19.50;99.90
5972;DHT22;3012;49.944;8.454;2023-08-06T10:44:05;19.40;99.90
5972;DHT22;3012;49.944;8.454;2023-08-06T10:46:37;18.90;99.90
5972;DHT22;3012;49.944;8.454;2023-08-06T10:49:09;19.40;99.90
5972;DHT22;3012;49.944;8.454;2023-08-06T10:51:41;19.70;99.90
5972;DHT22;3012;49.944;8.454;2023-08-06T10:54:11;20.00;99.90
5972;DHT22;3012;49.944;8.454;2023-08-06T10:56:43;19.70;99.90
5972;DHT22;3012;49.944;8.454;2023-08-06T10:59:16;19.90;99.90
5972;DHT22;3012;49.944;8.454;2023-08-06T11:01:46;20.10;99.90
5972;DHT22;3012;49.944;8.454;2023-08-06T11:04:16;19.60;99.90
5972;DHT22;3012;49.944;8.454;2023-08-06T11:06:52;19.50;99.90
5972;DHT22;3012;49.944;8.454;2023-08-06T11:09:23;19.30;99.90
5972;DHT22;3012;49.944;8.454;2023-08-06T11:11:55;19.30;99.90
5972;DHT22;3012;49.944;8.454;2023-08-06T11:14:25;18.10;99.90
5972;DHT22;3012;49.944;8.454;2023-08-06T11:16:54;18.70;99.90
5972;DHT22;3012;49.944;8.454;2023-08-06T11:19:25;18.50;99.90
5972;DHT22;3012;49.944;8.454;2023-08-06T11:21:55;17.80;99.90
5972;DHT22;3012;49.944;8.454;2023-08-06T11:24:26;18.40;99.90
5972;DHT22;3012;49.944;8.454;2023-08-06T11:26:58;18.30;99.90
5972;DHT22;3012;49.944;8.454;2023-08-06T11:29:28;18.10;99.90
5972;DHT22;3012;49.944;8.454;2023-08-06T11:32:04;18.30;99.90
5972;DHT22;3012;49.944;8.454;2023-08-06T11:34:34;18.10;99.90
5972;DHT22;3012;49.944;8.454;2023-08-06T11:37:05;17.90;99.90
5972;DHT22;3012;49.944;8.454;2023-08-06T11:39:35;17.90;99.90
5972;DHT22;3012;49.944;8.454;2023-08-06T11:42:07;17.80;99.90
5972;DHT22;3012;49.944;8.454;2023-08-06T11:44:38;18.10;99.90
5972;DHT22;3012;49.944;8.454;2023-08-06T11:47:14;18.40;99.90
5972;DHT22;3012;49.944;8.454;2023-08-06T11:49:45;17.70;99.90
5972;DHT22;3012;49.944;8.454;2023-08-06T11:52:17;17.60;99.90
5972;DHT22;3012;49.944;8.454;2023-08-06T11:54:59;17.50;99.90
5972;DHT22;3012;49.944;8.454;2023-08-06T11:57:32;17.30;99.90
5972;DHT22;3012;49.944;8.454;2023-08-06T12:00:04;17.90;99.90
5972;DHT22;3012;49.944;8.454;2023-08-06T12:02:34;17.80;99.90
5972;DHT22;3012;49.944;8.454;2023-08-06T12:05:11;17.90;99.90
5972;DHT22;3012;49.944;8.454;2023-08-06T12:07:43;17.50;99.90
5972;DHT22;3012;49.944;8.454;2023-08-06T12:10:13;17.40;99.90
5972;DHT22;3012;49.944;8.454;2023-08-06T12:12:45;16.80;99.90
5972;DHT22;3012;49.944;8.454;2023-08-06T12:15:15;16.60;99.90
5972;DHT22;3012;49.944;8.454;2023-08-06T12:17:45;17.40;99.90
5972;DHT22;3012;49.944;8.454;2023-08-06T12:20:15;17.40;99.90
5972;DHT22;3012;49.944;8.454;2023-08-06T12:22:45;17.20;99.90
5972;DHT22;3012;49.944;8.454;2023-08-06T12:25:16;17.40;99.90
5972;DHT22;3012;49.944;8.454;2023-08-06T12:27:47;17.10;99.90
5972;DHT22;3012;49.944;8.454;2023-08-06T12:30:19;17.70;99.90
5972;DHT22;3012;49.944;8.454;2023-08-06T12:32:49;17.70;99.90
5972;DHT22;3012;49.944;8.454;2023-08-06T12:35:20;17.20;99.90
5972;DHT22;3012;49.944;8.454;2023-08-06T12:37:50;17.50;99.90
5972;DHT22;3012;49.944;8.454;2023-08-06T12:40:22;17.80;99.90
5972;DHT22;3012;49.944;8.454;2023-08-06T12:43:05;17.50;99.90
5972;DHT22;3012;49.944;8.454;2023-08-06T12:45:35;17.70;99.90
5972;DHT22;3012;49.944;8.454;2023-08-06T12:48:05;17.10;99.90
5972;DHT22;3012;49.944;8.454;2023-08-06T12:50:35;17.00;99.90
5972;DHT22;3012;49.944;8.454;2023-08-06T12:53:05;17.40;99.90
5972;DHT22;3012;49.944;8.454;2023-08-06T12:55:35;17.00;99.90
5972;DHT22;3012;49.944;8.454;2023-08-06T12:58:07;17.40;99.90
5972;DHT22;3012;49.944;8.454;2023-08-06T13:00:37;17.40;99.90
5972;DHT22;3012;49.944;8.454;2023-08-06T13:03:07;17.20;99.90
5972;DHT22;3012;49.944;8.454;2023-08-06T13:05:38;16.80;99.90
5972;DHT22;3012;49.944;8.454;2023-08-06T13:08:08;16.70;99.90
5972;DHT22;3012;49.944;8.454;2023-08-06T13:10:38;17.00;99.90
5972;DHT22;3012;49.944;8.454;2023-08-06T13:13:10;16.70;99.90
5972;DHT22;3012;49.944;8.454;2023-08-06T13:15:40;17.30;99.90
5972;DHT22;3012;49.944;8.454;2023-08-06T13:18:11;17.00;99.90
5972;DHT22;3012;49.944;8.454;2023-08-06T13:20:41;16.90;99.90
5972;DHT22;3012;49.944;8.454;2023-08-06T13:23:10;16.70;99.90
5972;DHT22;3012;49.944;8.454;2023-08-06T13:25:43;16.80;99.90
5972;DHT22;3012;49.944;8.454;2023-08-06T13:28:15;16.80;99.90
5972;DHT22;3012;49.944;8.454;2023-08-06T13:30:46;16.70;99.90
5972;DHT22;3012;49.944;8.454;2023-08-06T13:33:16;16.70;99.90
5972;DHT22;3012;49.944;8.454;2023-08-06T13:35:46;16.40;99.90
5972;DHT22;3012;49.944;8.454;2023-08-06T13:38:18;16.70;99.90
5972;DHT22;3012;49.944;8.454;2023-08-06T13:40:48;16.90;99.90
5972;DHT22;3012;49.944;8.454;2023-08-06T13:43:20;16.30;99.90
5972;DHT22;3012;49.944;8.454;2023-08-06T13:45:50;16.40;99.90
5972;DHT22;3012;49.944;8.454;2023-08-06T13:48:20;16.00;99.90
5972;DHT22;3012;49.944;8.454;2023-08-06T13:50:51;16.50;99.90
5972;DHT22;3012;49.944;8.454;2023-08-06T13:53:21;16.50;99.90
5972;DHT22;3012;49.944;8.454;2023-08-06T13:55:53;15.80;99.90
5972;DHT22;3012;49.944;8.454;2023-08-06T13:58:25;16.40;99.90
5972;DHT22;3012;49.944;8.454;2023-08-06T14:00:56;16.40;99.90
5972;DHT22;3012;49.944;8.454;2023-08-06T14:03:25;15.80;99.90
5972;DHT22;3012;49.944;8.454;2023-08-06T14:05:56;16.40;99.90
5972;DHT22;3012;49.944;8.454;2023-08-06T14:08:26;16.30;99.90
5972;DHT22;3012;49.944;8.454;2023-08-06T14:10:56;16.20;99.90
5972;DHT22;3012;49.944;8.454;2023-08-06T14:13:27;16.10;99.90
5972;DHT22;3012;49.944;8.454;2023-08-06T14:15:58;16.10;99.90
5972;DHT22;3012;49.944;8.454;2023-08-06T14:18:28;16.40;99.90
5972;DHT22;3012;49.944;8.454;2023-08-06T14:20:58;16.70;99.90
5972;DHT22;3012;49.944;8.454;2023-08-06T14:23:28;16.10;99.90
5972;DHT22;3012;49.944;8.454;2023-08-06T14:25:59;16.80;99.90
5972;DHT22;3012;49.944;8.454;2023-08-06T14:28:31;16.70;99.90
5972;DHT22;3012;49.944;8.454;2023-08-06T14:31:02;16.80;99.90
5972;DHT22;3012;49.944;8.454;2023-08-06T14:33:32;16.90;99.90
5972;DHT22;3012;49.944;8.454;2023-08-06T14:36:02;17.00;99.90
5972;DHT22;3012;49.944;8.454;2023-08-06T14:38:32;17.00;99.90
5972;DHT22;3012;49.944;8.454;2023-08-06T14:41:20;17.30;99.90
5972;DHT22;3012;49.944;8.454;2023-08-06T14:43:52;17.00;99.90
5972;DHT22;3012;49.944;8.454;2023-08-06T14:46:22;17.00;99.90
5972;DHT22;3012;49.944;8.454;2023-08-06T14:48:53;17.20;99.90
5972;DHT22;3012;49.944;8.454;2023-08-06T14:51:23;17.10;99.90
5972;DHT22;3012;49.944;8.454;2023-08-06T14:53:53;16.90;99.90
5972;DHT22;3012;49.944;8.454;2023-08-06T14:56:23;16.70;99.90
5972;DHT22;3012;49.944;8.454;2023-08-06T14:58:55;16.60;99.90
5972;DHT22;3012;49.944;8.454;2023-08-06T15:01:25;17.00;99.90
5972;DHT22;3012;49.944;8.454;2023-08-06T15:03:55;17.10;99.90
5972;DHT22;3012;49.944;8.454;2023-08-06T15:06:25;17.20;99.90
5972;DHT22;3012;49.944;8.454;2023-08-06T15:08:55;17.30;99.90
5972;DHT22;3012;49.944;8.454;2023-08-06T15:11:28;16.30;99.90
5972;DHT22;3012;49.944;8.454;2023-08-06T15:14:00;16.60;99.90
5972;DHT22;3012;49.944;8.454;2023-08-06T15:16:33;16.20;99.90
5972;DHT22;3012;49.944;8.454;2023-08-06T15:19:03;16.80;99.90
5972;DHT22;3012;49.944;8.454;2023-08-06T15:21:33;16.30;99.90
5972;DHT22;3012;49.944;8.454;2023-08-06T15:24:04;16.80;99.90
5972;DHT22;3012;49.944;8.454;2023-08-06T15:26:34;16.90;99.90
5972;DHT22;3012;49.944;8.454;2023-08-06T15:29:06;16.70;99.90
5972;DHT22;3012;49.944;8.454;2023-08-06T15:31:38;16.80;99.90
5972;DHT22;3012;49.944;8.454;2023-08-06T15:34:08;16.70;99.90
5972;DHT22;3012;49.944;8.454;2023-08-06T15:36:38;16.60;99.90
5972;DHT22;3012;49.944;8.454;2023-08-06T15:39:09;17.30;99.90
5972;DHT22;3012;49.944;8.454;2023-08-06T15:41:39;16.90;99.90
5972;DHT22;3012;49.944;8.454;2023-08-06T15:44:11;16.70;99.90
5972;DHT22;3012;49.944;8.454;2023-08-06T15:46:41;16.90;99.90
5972;DHT22;3012;49.944;8.454;2023-08-06T15:49:11;16.60;99.90
5972;DHT22;3012;49.944;8.454;2023-08-06T15:51:41;16.60;99.90
5972;DHT22;3012;49.944;8.454;2023-08-06T15:54:12;16.20;99.90
5972;DHT22;3012;49.944;8.454;2023-08-06T15:56:42;16.10;99.90
5972;DHT22;3012;49.944;8.454;2023-08-06T15:59:24;16.50;99.90
5972;DHT22;3012;49.944;8.454;2023-08-06T16:01:54;16.30;99.90
5972;DHT22;3012;49.944;8.454;2023-08-06T16:04:26;15.90;99.90
5972;DHT22;3012;49.944;8.454;2023-08-06T16:06:58;16.20;99.90
5972;DHT22;3012;49.944;8.454;2023-08-06T16:09:31;16.30;99.90
5972;DHT22;3012;49.944;8.454;2023-08-06T16:12:03;16.40;99.90
5972;DHT22;3012;49.944;8.454;2023-08-06T16:14:41;16.60;99.90
5972;DHT22;3012;49.944;8.454;2023-08-06T16:17:15;16.20;99.90
5972;DHT22;3012;49.944;8.454;2023-08-06T16:19:50;16.20;99.90
5972;DHT22;3012;49.944;8.454;2023-08-06T16:22:22;16.20;99.90
5972;DHT22;3012;49.944;8.454;2023-08-06T16:24:52;16.20;99.90
5972;DHT22;3012;49.944;8.454;2023-08-06T16:27:22;16.20;99.90
5972;DHT22;3012;49.944;8.454;2023-08-06T16:29:54;16.20;99.90